sensor_id;sensor_type;location;lat;lon;timestamp;temperature;humidity
2012;DHT22;1009;51.436;6.972;2024-02-21T00:01:22;9.00;99.90
2012;DHT22;1009;51.436;6.972;2024-02-21T00:03:49;8.90;99.90
2012;DHT22;1009;51.436;6.972;2024-02-21T00:06:15;9.00;99.90
2012;DHT22;1009;51.436;6.972;2024-02-21T00:08:43;9.00;99.90
2012;DHT22;1009;51.436;6.972;2024-02-21T00:11:10;9.00;99.90
2012;DHT22;1009;51.436;6.972;2024-02-21T00:13:37;9.00;99.90
2012;DHT22;1009;51.436;6.972;2024-02-21T00:16:04;9.00;99.90
2012;DHT22;1009;51.436;6.972;2024-02-21T00:18:31;9.10;99.90
2012;DHT22;1009;51.436;6.972;2024-02-21T00:20:57;9.10;99.90
2012;DHT22;1009;51.436;6.972;2024-02-21T00:23:27;9.00;99.90
2012;DHT22;1009;51.436;6.972;2024-02-21T00:25:54;9.00;99.90
2012;DHT22;1009;51.436;6.972;2024-02-21T00:28:21;9.10;99.90
2012;DHT22;1009;51.436;6.972;2024-02-21T00:30:47;9.10;99.90
2012;DHT22;1009;51.436;6.972;2024-02-21T00:33:16;9.10;99.90
2012;DHT22;1009;51.436;6.972;2024-02-21T00:35:42;9.10;99.90
2012;DHT22;1009;51.436;6.972;2024-02-21T00:38:09;9.10;99.90
2012;DHT22;1009;51.436;6.972;2024-02-21T00:40:36;9.10;99.90
2012;DHT22;1009;51.436;6.972;2024-02-21T00:43:04;9.00;99.90
2012;DHT22;1009;51.436;6.972;2024-02-21T00:45:31;9.00;99.90
2012;DHT22;1009;51.436;6.972;2024-02-21T00:47:59;9.00;99.90
2012;DHT22;1009;51.436;6.972;2024-02-21T00:50:26;9.00;99.90
2012;DHT22;1009;51.436;6.972;2024-02-21T00:52:52;9.00;99.90
2012;DHT22;1009;51.436;6.972;2024-02-21T00:55:19;9.00;99.90
2012;DHT22;1009;51.436;6.972;2024-02-21T00:57:46;9.00;99.90
2012;DHT22;1009;51.436;6.972;2024-02-21T01:00:15;9.00;99.90
2012;DHT22;1009;51.436;6.972;2024-02-21T01:02:42;9.00;99.90
2012;DHT22;1009;51.436;6.972;2024-02-21T01:05:09;9.00;99.90
2012;DHT22;1009;51.436;6.972;2024-02-21T01:07:35;8.90;99.90
2012;DHT22;1009;51.436;6.972;2024-02-21T01:10:02;9.00;99.90
2012;DHT22;1009;51.436;6.972;2024-02-21T01:12:29;9.00;99.90
2012;DHT22;1009;51.436;6.972;2024-02-21T01:14:56;9.00;99.90
2012;DHT22;1009;51.436;6.972;2024-02-21T01:17:24;9.00;99.90
2012;DHT22;1009;51.436;6.972;2024-02-21T01:19:50;8.90;99.90
2012;DHT22;1009;51.436;6.972;2024-02-21T01:22:17;8.90;99.90
2012;DHT22;1009;51.436;6.972;2024-02-21T01:24:44;8.90;99.90
2012;DHT22;1009;51.436;6.972;2024-02-21T01:27:11;9.00;99.90
2012;DHT22;1009;51.436;6.972;2024-02-21T01:29:37;9.00;99.90
2012;DHT22;1009;51.436;6.972;2024-02-21T01:32:05;8.90;99.90
2012;DHT22;1009;51.436;6.972;2024-02-21T01:34:33;8.90;99.90
2012;DHT22;1009;51.436;6.972;2024-02-21T01:36:59;8.80;99.90
2012;DHT22;1009;51.436;6.972;2024-02-21T01:39:30;8.80;99.90
2012;DHT22;1009;51.436;6.972;2024-02-21T01:41:56;8.80;99.90
2012;DHT22;1009;51.436;6.972;2024-02-21T01:44:23;8.90;99.90
2012;DHT22;1009;51.436;6.972;2024-02-21T01:46:50;8.90;99.90
2012;DHT22;1009;51.436;6.972;2024-02-21T01:49:18;8.90;99.90
2012;DHT22;1009;51.436;6.972;2024-02-21T01:51:46;9.00;99.90
2012;DHT22;1009;51.436;6.972;2024-02-21T01:54:14;8.90;99.90
2012;DHT22;1009;51.436;6.972;2024-02-21T01:56:41;8.90;99.90
2012;DHT22;1009;51.436;6.972;2024-02-21T01:59:08;8.90;99.90
2012;DHT22;1009;51.436;6.972;2024-02-21T02:01:35;8.90;99.90
2012;DHT22;1009;51.436;6.972;2024-02-21T02:04:02;8.90;99.90
2012;DHT22;1009;51.436;6.972;2024-02-21T02:06:30;8.90;99.90
2012;DHT22;1009;51.436;6.972;2024-02-21T02:08:58;8.90;99.90
2012;DHT22;1009;51.436;6.972;2024-02-21T02:11:25;8.90;99.90
2012;DHT22;1009;51.436;6.972;2024-02-21T02:13:52;8.90;99.90
2012;DHT22;1009;51.436;6.972;2024-02-21T02:16:19;8.90;99.90
2012;DHT22;1009;51.436;6.972;2024-02-21T02:18:46;8.90;99.90
2012;DHT22;1009;51.436;6.972;2024-02-21T02:21:22;8.90;99.90
2012;DHT22;1009;51.436;6.972;2024-02-21T02:23:51;8.90;99.90
2012;DHT22;1009;51.436;6.972;2024-02-21T02:26:18;8.90;99.90
2012;DHT22;1009;51.436;6.972;2024-02-21T02:28:45;8.90;99.90
2012;DHT22;1009;51.436;6.972;2024-02-21T02:31:11;8.90;99.90
2012;DHT22;1009;51.436;6.972;2024-02-21T02:33:38;8.80;99.90
2012;DHT22;1009;51.436;6.972;2024-02-21T02:36:05;8.80;99.90
2012;DHT22;1009;51.436;6.972;2024-02-21T02:38:32;8.80;99.90
2012;DHT22;1009;51.436;6.972;2024-02-21T02:41:00;8.80;99.90
2012;DHT22;1009;51.436;6.972;2024-02-21T02:43:27;8.70;99.90
2012;DHT22;1009;51.436;6.972;2024-02-21T02:45:53;8.70;99.90
2012;DHT22;1009;51.436;6.972;2024-02-21T02:48:21;8.70;99.90
2012;DHT22;1009;51.436;6.972;2024-02-21T02:50:47;8.70;99.90
2012;DHT22;1009;51.436;6.972;2024-02-21T02:53:15;8.70;99.90
2012;DHT22;1009;51.436;6.972;2024-02-21T02:55:42;8.70;99.90
2012;DHT22;1009;51.436;6.972;2024-02-21T02:58:10;8.60;99.90
2012;DHT22;1009;51.436;6.972;2024-02-21T03:00:37;8.60;99.90
2012;DHT22;1009;51.436;6.972;2024-02-21T03:03:04;8.60;99.90
2012;DHT22;1009;51.436;6.972;2024-02-21T03:05:31;8.60;99.90
2012;DHT22;1009;51.436;6.972;2024-02-21T03:07:58;8.50;99.90
2012;DHT22;1009;51.436;6.972;2024-02-21T03:10:25;8.60;99.90
2012;DHT22;1009;51.436;6.972;2024-02-21T03:12:51;8.60;99.90
2012;DHT22;1009;51.436;6.972;2024-02-21T03:15:20;8.60;99.90
2012;DHT22;1009;51.436;6.972;2024-02-21T03:17:47;8.70;99.90
2012;DHT22;1009;51.436;6.972;2024-02-21T03:20:15;8.70;99.90
2012;DHT22;1009;51.436;6.972;2024-02-21T03:22:42;8.70;99.90
2012;DHT22;1009;51.436;6.972;2024-02-21T03:25:09;8.70;99.90
2012;DHT22;1009;51.436;6.972;2024-02-21T03:27:36;8.80;99.90
2012;DHT22;1009;51.436;6.972;2024-02-21T03:30:03;8.70;99.90
2012;DHT22;1009;51.436;6.972;2024-02-21T03:32:32;8.70;99.90
2012;DHT22;1009;51.436;6.972;2024-02-21T03:34:59;8.70;99.90
2012;DHT22;1009;51.436;6.972;2024-02-21T03:37:25;8.70;99.90
2012;DHT22;1009;51.436;6.972;2024-02-21T03:39:52;8.70;99.90
2012;DHT22;1009;51.436;6.972;2024-02-21T03:42:19;8.70;99.90
2012;DHT22;1009;51.436;6.972;2024-02-21T03:44:45;8.70;99.90
2012;DHT22;1009;51.436;6.972;2024-02-21T03:47:12;8.70;99.90
2012;DHT22;1009;51.436;6.972;2024-02-21T03:49:41;8.60;99.90
2012;DHT22;1009;51.436;6.972;2024-02-21T03:52:07;8.60;99.90
2012;DHT22;1009;51.436;6.972;2024-02-21T03:54:34;8.60;99.90
2012;DHT22;1009;51.436;6.972;2024-02-21T03:57:01;8.70;99.90
2012;DHT22;1009;51.436;6.972;2024-02-21T03:59:28;8.70;99.90
2012;DHT22;1009;51.436;6.972;2024-02-21T04:01:55;8.70;99.90
2012;DHT22;1009;51.436;6.972;2024-02-21T04:04:22;8.80;99.90
2012;DHT22;1009;51.436;6.972;2024-02-21T04:06:50;8.70;99.90
2012;DHT22;1009;51.436;6.972;2024-02-21T04:09:17;8.70;99.90
2012;DHT22;1009;51.436;6.972;2024-02-21T04:11:44;8.80;99.90
2012;DHT22;1009;51.436;6.972;2024-02-21T04:14:10;8.80;99.90
2012;DHT22;1009;51.436;6.972;2024-02-21T04:16:37;8.80;99.90
2012;DHT22;1009;51.436;6.972;2024-02-21T04:19:04;8.80;99.90
2012;DHT22;1009;51.436;6.972;2024-02-21T04:21:31;8.80;99.90
2012;DHT22;1009;51.436;6.972;2024-02-21T04:23:59;8.80;99.90
2012;DHT22;1009;51.436;6.972;2024-02-21T04:26:27;8.80;99.90
2012;DHT22;1009;51.436;6.972;2024-02-21T04:28:54;8.80;99.90
2012;DHT22;1009;51.436;6.972;2024-02-21T04:31:21;8.80;99.90
2012;DHT22;1009;51.436;6.972;2024-02-21T04:33:47;8.90;99.90
2012;DHT22;1009;51.436;6.972;2024-02-21T04:36:14;8.90;99.90
2012;DHT22;1009;51.436;6.972;2024-02-21T04:38:41;8.80;99.90
2012;DHT22;1009;51.436;6.972;2024-02-21T04:41:09;8.80;99.90
2012;DHT22;1009;51.436;6.972;2024-02-21T04:43:36;8.80;99.90
2012;DHT22;1009;51.436;6.972;2024-02-21T04:46:04;8.80;99.90
2012;DHT22;1009;51.436;6.972;2024-02-21T04:48:31;8.80;99.90
2012;DHT22;1009;51.436;6.972;2024-02-21T04:50:57;8.90;99.90
2012;DHT22;1009;51.436;6.972;2024-02-21T04:53:24;8.90;99.90
2012;DHT22;1009;51.436;6.972;2024-02-21T04:55:51;8.90;99.90
2012;DHT22;1009;51.436;6.972;2024-02-21T04:58:19;8.90;99.90
2012;DHT22;1009;51.436;6.972;2024-02-21T05:00:45;9.00;99.90
2012;DHT22;1009;51.436;6.972;2024-02-21T05:03:12;8.90;99.90
2012;DHT22;1009;51.436;6.972;2024-02-21T05:05:39;8.90;99.90
2012;DHT22;1009;51.436;6.972;2024-02-21T05:08:06;8.80;99.90
2012;DHT22;1009;51.436;6.972;2024-02-21T05:10:33;8.80;99.90
2012;DHT22;1009;51.436;6.972;2024-02-21T05:12:59;8.70;99.90
2012;DHT22;1009;51.436;6.972;2024-02-21T05:15:27;8.80;99.90
2012;DHT22;1009;51.436;6.972;2024-02-21T05:17:54;8.80;99.90
2012;DHT22;1009;51.436;6.972;2024-02-21T05:20:21;8.80;99.90
2012;DHT22;1009;51.436;6.972;2024-02-21T05:22:47;8.80;99.90
2012;DHT22;1009;51.436;6.972;2024-02-21T05:25:16;8.80;99.90
2012;DHT22;1009;51.436;6.972;2024-02-21T05:27:43;8.80;99.90
2012;DHT22;1009;51.436;6.972;2024-02-21T05:30:12;8.80;99.90
2012;DHT22;1009;51.436;6.972;2024-02-21T05:32:40;8.80;99.90
2012;DHT22;1009;51.436;6.972;2024-02-21T05:35:07;8.70;99.90
2012;DHT22;1009;51.436;6.972;2024-02-21T05:37:34;8.80;99.90
2012;DHT22;1009;51.436;6.972;2024-02-21T05:40:01;8.70;99.90
2012;DHT22;1009;51.436;6.972;2024-02-21T05:42:27;8.70;99.90
2012;DHT22;1009;51.436;6.972;2024-02-21T05:44:54;8.80;99.90
2012;DHT22;1009;51.436;6.972;2024-02-21T05:47:21;8.80;99.90
2012;DHT22;1009;51.436;6.972;2024-02-21T05:49:49;8.80;99.90
2012;DHT22;1009;51.436;6.972;2024-02-21T05:52:19;8.80;99.90
2012;DHT22;1009;51.436;6.972;2024-02-21T05:54:45;8.80;99.90
2012;DHT22;1009;51.436;6.972;2024-02-21T05:57:12;8.80;99.90
2012;DHT22;1009;51.436;6.972;2024-02-21T05:59:39;8.80;99.90
2012;DHT22;1009;51.436;6.972;2024-02-21T06:02:07;8.80;99.90
2012;DHT22;1009;51.436;6.972;2024-02-21T06:04:34;8.80;99.90
2012;DHT22;1009;51.436;6.972;2024-02-21T06:07:02;8.90;99.90
2012;DHT22;1009;51.436;6.972;2024-02-21T06:09:29;8.80;99.90
2012;DHT22;1009;51.436;6.972;2024-02-21T06:11:57;8.80;99.90
2012;DHT22;1009;51.436;6.972;2024-02-21T06:14:24;8.80;99.90
2012;DHT22;1009;51.436;6.972;2024-02-21T06:16:50;8.80;99.90
2012;DHT22;1009;51.436;6.972;2024-02-21T06:19:17;8.80;99.90
2012;DHT22;1009;51.436;6.972;2024-02-21T06:21:44;8.70;99.90
2012;DHT22;1009;51.436;6.972;2024-02-21T06:24:12;8.80;99.90
2012;DHT22;1009;51.436;6.972;2024-02-21T06:26:40;8.80;99.90
2012;DHT22;1009;51.436;6.972;2024-02-21T06:29:06;8.80;99.90
2012;DHT22;1009;51.436;6.972;2024-02-21T06:31:35;8.80;99.90
2012;DHT22;1009;51.436;6.972;2024-02-21T06:34:01;8.80;99.90
2012;DHT22;1009;51.436;6.972;2024-02-21T06:36:28;8.80;99.90
2012;DHT22;1009;51.436;6.972;2024-02-21T06:38:55;8.80;99.90
2012;DHT22;1009;51.436;6.972;2024-02-21T06:41:23;8.90;99.90
2012;DHT22;1009;51.436;6.972;2024-02-21T06:43:50;8.80;99.90
2012;DHT22;1009;51.436;6.972;2024-02-21T06:46:23;8.90;99.90
2012;DHT22;1009;51.436;6.972;2024-02-21T06:48:51;8.90;99.90
2012;DHT22;1009;51.436;6.972;2024-02-21T06:51:17;8.90;99.90
2012;DHT22;1009;51.436;6.972;2024-02-21T06:53:44;8.90;99.90
2012;DHT22;1009;51.436;6.972;2024-02-21T06:56:11;9.00;99.90
2012;DHT22;1009;51.436;6.972;2024-02-21T06:58:39;8.90;99.90
2012;DHT22;1009;51.436;6.972;2024-02-21T07:01:07;9.00;99.90
2012;DHT22;1009;51.436;6.972;2024-02-21T07:03:34;9.00;99.90
2012;DHT22;1009;51.436;6.972;2024-02-21T07:06:00;8.90;99.90
2012;DHT22;1009;51.436;6.972;2024-02-21T07:08:27;9.00;99.90
2012;DHT22;1009;51.436;6.972;2024-02-21T07:10:54;9.00;99.90
2012;DHT22;1009;51.436;6.972;2024-02-21T07:13:21;9.00;99.90
2012;DHT22;1009;51.436;6.972;2024-02-21T07:15:49;9.00;99.90
2012;DHT22;1009;51.436;6.972;2024-02-21T07:18:16;9.00;99.90
2012;DHT22;1009;51.436;6.972;2024-02-21T07:20:43;9.00;99.90
2012;DHT22;1009;51.436;6.972;2024-02-21T07:23:10;9.00;99.90
2012;DHT22;1009;51.436;6.972;2024-02-21T07:25:36;9.00;99.90
2012;DHT22;1009;51.436;6.972;2024-02-21T07:28:03;9.10;99.90
2012;DHT22;1009;51.436;6.972;2024-02-21T07:30:30;9.10;99.90
2012;DHT22;1009;51.436;6.972;2024-02-21T07:32:59;9.10;99.90
2012;DHT22;1009;51.436;6.972;2024-02-21T07:35:25;9.10;99.90
2012;DHT22;1009;51.436;6.972;2024-02-21T07:37:52;9.10;99.90
2012;DHT22;1009;51.436;6.972;2024-02-21T07:40:19;9.10;99.90
2012;DHT22;1009;51.436;6.972;2024-02-21T07:42:46;9.10;99.90
2012;DHT22;1009;51.436;6.972;2024-02-21T07:45:13;9.10;99.90
2012;DHT22;1009;51.436;6.972;2024-02-21T07:47:39;9.10;99.90
2012;DHT22;1009;51.436;6.972;2024-02-21T07:50:08;9.10;99.90
2012;DHT22;1009;51.436;6.972;2024-02-21T07:52:35;9.20;99.90
2012;DHT22;1009;51.436;6.972;2024-02-21T07:55:02;9.20;99.90
2012;DHT22;1009;51.436;6.972;2024-02-21T07:57:29;9.20;99.90
2012;DHT22;1009;51.436;6.972;2024-02-21T07:59:55;9.20;99.90
2012;DHT22;1009;51.436;6.972;2024-02-21T08:02:22;9.20;99.90
2012;DHT22;1009;51.436;6.972;2024-02-21T08:04:49;9.20;99.90
2012;DHT22;1009;51.436;6.972;2024-02-21T08:07:17;9.20;99.90
2012;DHT22;1009;51.436;6.972;2024-02-21T08:09:44;9.10;99.90
2012;DHT22;1009;51.436;6.972;2024-02-21T08:12:10;9.10;99.90
2012;DHT22;1009;51.436;6.972;2024-02-21T08:14:37;9.20;99.90
2012;DHT22;1009;51.436;6.972;2024-02-21T08:17:04;9.30;99.90
2012;DHT22;1009;51.436;6.972;2024-02-21T08:19:31;9.30;99.90
2012;DHT22;1009;51.436;6.972;2024-02-21T08:21:57;9.30;99.90
2012;DHT22;1009;51.436;6.972;2024-02-21T08:24:25;9.50;99.90
2012;DHT22;1009;51.436;6.972;2024-02-21T08:26:52;9.50;99.90
2012;DHT22;1009;51.436;6.972;2024-02-21T08:29:19;9.40;99.90
2012;DHT22;1009;51.436;6.972;2024-02-21T08:31:46;9.20;99.90
2012;DHT22;1009;51.436;6.972;2024-02-21T08:34:13;9.20;99.90
2012;DHT22;1009;51.436;6.972;2024-02-21T08:36:40;9.20;99.90
2012;DHT22;1009;51.436;6.972;2024-02-21T08:39:07;9.20;99.90
2012;DHT22;1009;51.436;6.972;2024-02-21T08:41:36;9.20;99.90
2012;DHT22;1009;51.436;6.972;2024-02-21T08:44:04;9.20;99.90
2012;DHT22;1009;51.436;6.972;2024-02-21T08:46:30;9.10;99.90
2012;DHT22;1009;51.436;6.972;2024-02-21T08:48:57;9.10;99.90
2012;DHT22;1009;51.436;6.972;2024-02-21T08:51:24;9.10;99.90
2012;DHT22;1009;51.436;6.972;2024-02-21T08:53:52;9.20;99.90
2012;DHT22;1009;51.436;6.972;2024-02-21T08:56:19;9.10;99.90
2012;DHT22;1009;51.436;6.972;2024-02-21T08:58:47;9.10;99.90
2012;DHT22;1009;51.436;6.972;2024-02-21T09:01:13;9.10;99.90
2012;DHT22;1009;51.436;6.972;2024-02-21T09:03:40;9.10;99.90
2012;DHT22;1009;51.436;6.972;2024-02-21T09:06:07;9.20;99.90
2012;DHT22;1009;51.436;6.972;2024-02-21T09:08:36;9.20;99.90
2012;DHT22;1009;51.436;6.972;2024-02-21T09:11:02;9.20;99.90
2012;DHT22;1009;51.436;6.972;2024-02-21T09:13:29;9.20;99.90
2012;DHT22;1009;51.436;6.972;2024-02-21T09:15:58;9.20;99.90
2012;DHT22;1009;51.436;6.972;2024-02-21T09:18:24;9.30;99.90
2012;DHT22;1009;51.436;6.972;2024-02-21T09:20:51;9.50;99.90
2012;DHT22;1009;51.436;6.972;2024-02-21T09:23:18;9.50;99.90
2012;DHT22;1009;51.436;6.972;2024-02-21T09:25:45;9.60;99.90
2012;DHT22;1009;51.436;6.972;2024-02-21T09:28:12;9.70;99.90
2012;DHT22;1009;51.436;6.972;2024-02-21T09:30:39;9.70;99.90
2012;DHT22;1009;51.436;6.972;2024-02-21T09:33:07;9.80;99.90
2012;DHT22;1009;51.436;6.972;2024-02-21T09:35:34;9.70;99.90
2012;DHT22;1009;51.436;6.972;2024-02-21T09:38:01;9.70;99.90
2012;DHT22;1009;51.436;6.972;2024-02-21T09:40:28;9.80;99.90
2012;DHT22;1009;51.436;6.972;2024-02-21T09:43:02;9.80;99.90
2012;DHT22;1009;51.436;6.972;2024-02-21T09:45:33;9.90;99.90
2012;DHT22;1009;51.436;6.972;2024-02-21T09:48:29;9.80;99.90
2012;DHT22;1009;51.436;6.972;2024-02-21T09:50:57;9.70;99.90
2012;DHT22;1009;51.436;6.972;2024-02-21T09:53:26;9.60;99.90
2012;DHT22;1009;51.436;6.972;2024-02-21T09:55:54;9.60;99.90
2012;DHT22;1009;51.436;6.972;2024-02-21T09:58:22;9.60;99.90
2012;DHT22;1009;51.436;6.972;2024-02-21T10:00:51;9.60;99.90
2012;DHT22;1009;51.436;6.972;2024-02-21T10:03:18;9.50;99.90
2012;DHT22;1009;51.436;6.972;2024-02-21T10:05:48;9.60;99.90
2012;DHT22;1009;51.436;6.972;2024-02-21T10:08:16;9.40;99.90
2012;DHT22;1009;51.436;6.972;2024-02-21T10:10:43;9.40;99.90
2012;DHT22;1009;51.436;6.972;2024-02-21T10:13:10;9.50;99.90
2012;DHT22;1009;51.436;6.972;2024-02-21T10:15:37;9.60;99.90
2012;DHT22;1009;51.436;6.972;2024-02-21T10:18:04;9.50;99.90
2012;DHT22;1009;51.436;6.972;2024-02-21T10:20:32;9.60;99.90
2012;DHT22;1009;51.436;6.972;2024-02-21T10:23:04;9.60;99.90
2012;DHT22;1009;51.436;6.972;2024-02-21T10:25:33;9.70;99.90
2012;DHT22;1009;51.436;6.972;2024-02-21T10:28:01;9.70;99.90
2012;DHT22;1009;51.436;6.972;2024-02-21T10:30:28;9.70;99.90
2012;DHT22;1009;51.436;6.972;2024-02-21T10:32:55;9.70;99.90
2012;DHT22;1009;51.436;6.972;2024-02-21T10:35:26;9.60;99.90
2012;DHT22;1009;51.436;6.972;2024-02-21T10:37:54;9.70;99.90
2012;DHT22;1009;51.436;6.972;2024-02-21T10:40:24;9.70;99.90
2012;DHT22;1009;51.436;6.972;2024-02-21T10:42:55;9.70;99.90
2012;DHT22;1009;51.436;6.972;2024-02-21T10:45:23;9.70;99.90
2012;DHT22;1009;51.436;6.972;2024-02-21T10:47:56;9.70;99.90
2012;DHT22;1009;51.436;6.972;2024-02-21T10:50:25;9.70;99.90
2012;DHT22;1009;51.436;6.972;2024-02-21T10:53:02;9.80;99.90
2012;DHT22;1009;51.436;6.972;2024-02-21T10:55:39;9.90;99.90
2012;DHT22;1009;51.436;6.972;2024-02-21T10:58:08;10.00;99.90
2012;DHT22;1009;51.436;6.972;2024-02-21T11:00:37;10.10;99.90
2012;DHT22;1009;51.436;6.972;2024-02-21T11:03:04;10.10;99.90
2012;DHT22;1009;51.436;6.972;2024-02-21T11:05:32;10.20;99.90
2012;DHT22;1009;51.436;6.972;2024-02-21T11:07:59;10.20;99.90
2012;DHT22;1009;51.436;6.972;2024-02-21T11:10:27;10.30;99.90
2012;DHT22;1009;51.436;6.972;2024-02-21T11:13:05;10.20;99.90
2012;DHT22;1009;51.436;6.972;2024-02-21T11:15:32;10.10;99.90
2012;DHT22;1009;51.436;6.972;2024-02-21T11:17:59;10.10;99.90
2012;DHT22;1009;51.436;6.972;2024-02-21T11:20:32;10.20;99.90
2012;DHT22;1009;51.436;6.972;2024-02-21T11:22:59;10.30;99.90
2012;DHT22;1009;51.436;6.972;2024-02-21T11:25:26;10.40;99.90
2012;DHT22;1009;51.436;6.972;2024-02-21T11:28:00;10.30;99.90
2012;DHT22;1009;51.436;6.972;2024-02-21T11:30:29;10.30;99.90
2012;DHT22;1009;51.436;6.972;2024-02-21T11:33:02;10.30;99.90
2012;DHT22;1009;51.436;6.972;2024-02-21T11:35:33;10.30;99.90
2012;DHT22;1009;51.436;6.972;2024-02-21T11:38:10;10.50;99.90
2012;DHT22;1009;51.436;6.972;2024-02-21T11:40:40;10.40;99.90
2012;DHT22;1009;51.436;6.972;2024-02-21T11:43:08;10.50;99.90
2012;DHT22;1009;51.436;6.972;2024-02-21T11:45:35;10.40;99.90
2012;DHT22;1009;51.436;6.972;2024-02-21T11:48:05;10.40;99.90
2012;DHT22;1009;51.436;6.972;2024-02-21T11:50:31;10.40;99.90
2012;DHT22;1009;51.436;6.972;2024-02-21T11:52:58;10.50;99.90
2012;DHT22;1009;51.436;6.972;2024-02-21T11:55:25;10.60;99.90
2012;DHT22;1009;51.436;6.972;2024-02-21T11:57:52;10.60;99.90
2012;DHT22;1009;51.436;6.972;2024-02-21T12:00:21;10.50;99.90
2012;DHT22;1009;51.436;6.972;2024-02-21T12:02:50;10.60;99.90
2012;DHT22;1009;51.436;6.972;2024-02-21T12:05:18;10.60;99.90
2012;DHT22;1009;51.436;6.972;2024-02-21T12:07:45;10.70;99.90
2012;DHT22;1009;51.436;6.972;2024-02-21T12:10:13;10.70;99.90
2012;DHT22;1009;51.436;6.972;2024-02-21T12:12:40;10.60;99.90
2012;DHT22;1009;51.436;6.972;2024-02-21T12:15:07;10.70;99.90
2012;DHT22;1009;51.436;6.972;2024-02-21T12:17:36;10.80;99.90
2012;DHT22;1009;51.436;6.972;2024-02-21T12:20:04;10.90;99.90
2012;DHT22;1009;51.436;6.972;2024-02-21T12:22:35;10.80;99.90
2012;DHT22;1009;51.436;6.972;2024-02-21T12:25:03;10.70;99.90
2012;DHT22;1009;51.436;6.972;2024-02-21T12:27:33;10.70;99.90
2012;DHT22;1009;51.436;6.972;2024-02-21T12:29:59;10.60;99.90
2012;DHT22;1009;51.436;6.972;2024-02-21T12:32:26;10.70;99.90
2012;DHT22;1009;51.436;6.972;2024-02-21T12:34:54;10.70;99.90
2012;DHT22;1009;51.436;6.972;2024-02-21T12:37:22;10.70;99.90
2012;DHT22;1009;51.436;6.972;2024-02-21T12:39:49;10.80;99.90
2012;DHT22;1009;51.436;6.972;2024-02-21T12:42:15;10.80;99.90
2012;DHT22;1009;51.436;6.972;2024-02-21T12:44:42;10.80;99.90
2012;DHT22;1009;51.436;6.972;2024-02-21T12:47:13;10.80;99.90
2012;DHT22;1009;51.436;6.972;2024-02-21T12:49:39;10.90;99.90
2012;DHT22;1009;51.436;6.972;2024-02-21T12:52:08;11.00;99.90
2012;DHT22;1009;51.436;6.972;2024-02-21T12:54:34;11.20;99.90
2012;DHT22;1009;51.436;6.972;2024-02-21T12:57:01;11.30;99.90
2012;DHT22;1009;51.436;6.972;2024-02-21T12:59:28;11.30;99.90
2012;DHT22;1009;51.436;6.972;2024-02-21T13:01:55;11.30;99.90
2012;DHT22;1009;51.436;6.972;2024-02-21T13:04:22;11.40;99.90
2012;DHT22;1009;51.436;6.972;2024-02-21T13:06:49;11.50;99.90
2012;DHT22;1009;51.436;6.972;2024-02-21T13:09:17;11.40;99.90
2012;DHT22;1009;51.436;6.972;2024-02-21T13:11:45;11.40;99.90
2012;DHT22;1009;51.436;6.972;2024-02-21T13:14:12;11.50;99.90
2012;DHT22;1009;51.436;6.972;2024-02-21T13:16:39;11.60;99.90
2012;DHT22;1009;51.436;6.972;2024-02-21T13:19:06;11.60;99.90
2012;DHT22;1009;51.436;6.972;2024-02-21T13:21:33;11.60;99.90
2012;DHT22;1009;51.436;6.972;2024-02-21T13:24:00;11.60;99.90
2012;DHT22;1009;51.436;6.972;2024-02-21T13:26:28;11.40;99.90
2012;DHT22;1009;51.436;6.972;2024-02-21T13:28:55;11.50;99.90
2012;DHT22;1009;51.436;6.972;2024-02-21T13:31:21;11.50;99.90
2012;DHT22;1009;51.436;6.972;2024-02-21T13:33:48;11.60;99.90
2012;DHT22;1009;51.436;6.972;2024-02-21T13:36:15;11.70;99.90
2012;DHT22;1009;51.436;6.972;2024-02-21T13:38:42;11.70;99.90
2012;DHT22;1009;51.436;6.972;2024-02-21T13:41:08;11.80;99.90
2012;DHT22;1009;51.436;6.972;2024-02-21T13:43:36;11.70;99.90
2012;DHT22;1009;51.436;6.972;2024-02-21T13:46:03;11.70;99.90
2012;DHT22;1009;51.436;6.972;2024-02-21T13:48:35;11.70;99.90
2012;DHT22;1009;51.436;6.972;2024-02-21T13:51:01;11.70;99.90
2012;DHT22;1009;51.436;6.972;2024-02-21T13:53:28;11.80;99.90
2012;DHT22;1009;51.436;6.972;2024-02-21T13:55:55;11.80;99.90
2012;DHT22;1009;51.436;6.972;2024-02-21T13:58:22;11.60;99.90
2012;DHT22;1009;51.436;6.972;2024-02-21T14:00:50;11.50;99.90
2012;DHT22;1009;51.436;6.972;2024-02-21T14:03:17;11.60;99.90
2012;DHT22;1009;51.436;6.972;2024-02-21T14:05:45;11.60;99.90
2012;DHT22;1009;51.436;6.972;2024-02-21T14:08:13;11.60;99.90
2012;DHT22;1009;51.436;6.972;2024-02-21T14:10:40;11.50;99.90
2012;DHT22;1009;51.436;6.972;2024-02-21T14:13:07;11.50;99.90
2012;DHT22;1009;51.436;6.972;2024-02-21T14:15:33;11.40;99.90
2012;DHT22;1009;51.436;6.972;2024-02-21T14:18:03;11.40;99.90
2012;DHT22;1009;51.436;6.972;2024-02-21T14:20:34;11.40;99.90
2012;DHT22;1009;51.436;6.972;2024-02-21T14:23:00;11.40;99.90
2012;DHT22;1009;51.436;6.972;2024-02-21T14:25:28;11.40;99.90
2012;DHT22;1009;51.436;6.972;2024-02-21T14:27:54;11.50;99.90
2012;DHT22;1009;51.436;6.972;2024-02-21T14:30:21;11.60;99.90
2012;DHT22;1009;51.436;6.972;2024-02-21T14:32:48;11.70;99.90
2012;DHT22;1009;51.436;6.972;2024-02-21T14:35:18;11.70;99.90
2012;DHT22;1009;51.436;6.972;2024-02-21T14:37:45;11.70;99.90
2012;DHT22;1009;51.436;6.972;2024-02-21T14:40:14;11.70;99.90
2012;DHT22;1009;51.436;6.972;2024-02-21T14:42:41;11.70;99.90
2012;DHT22;1009;51.436;6.972;2024-02-21T14:45:09;11.60;99.90
2012;DHT22;1009;51.436;6.972;2024-02-21T14:47:35;11.50;99.90
2012;DHT22;1009;51.436;6.972;2024-02-21T14:50:03;11.50;99.90
2012;DHT22;1009;51.436;6.972;2024-02-21T14:52:31;11.50;99.90
2012;DHT22;1009;51.436;6.972;2024-02-21T14:54:58;11.50;99.90
2012;DHT22;1009;51.436;6.972;2024-02-21T14:57:25;11.50;99.90
2012;DHT22;1009;51.436;6.972;2024-02-21T14:59:52;11.50;99.90
2012;DHT22;1009;51.436;6.972;2024-02-21T15:02:21;11.40;99.90
2012;DHT22;1009;51.436;6.972;2024-02-21T15:04:48;11.40;99.90
2012;DHT22;1009;51.436;6.972;2024-02-21T15:07:16;11.40;99.90
2012;DHT22;1009;51.436;6.972;2024-02-21T15:09:45;11.30;99.90
2012;DHT22;1009;51.436;6.972;2024-02-21T15:12:12;11.30;99.90
2012;DHT22;1009;51.436;6.972;2024-02-21T15:14:39;11.20;99.90
2012;DHT22;1009;51.436;6.972;2024-02-21T15:17:06;11.20;99.90
2012;DHT22;1009;51.436;6.972;2024-02-21T15:19:33;11.20;99.90
2012;DHT22;1009;51.436;6.972;2024-02-21T15:21:59;11.20;99.90
2012;DHT22;1009;51.436;6.972;2024-02-21T15:24:26;11.20;99.90
2012;DHT22;1009;51.436;6.972;2024-02-21T15:26:54;11.20;99.90
2012;DHT22;1009;51.436;6.972;2024-02-21T15:29:21;11.20;99.90
2012;DHT22;1009;51.436;6.972;2024-02-21T15:31:49;11.30;99.90
2012;DHT22;1009;51.436;6.972;2024-02-21T15:34:15;11.20;99.90
2012;DHT22;1009;51.436;6.972;2024-02-21T15:36:43;11.20;99.90
2012;DHT22;1009;51.436;6.972;2024-02-21T15:39:09;11.10;99.90
2012;DHT22;1009;51.436;6.972;2024-02-21T15:41:37;11.10;99.90
2012;DHT22;1009;51.436;6.972;2024-02-21T15:44:05;11.10;99.90
2012;DHT22;1009;51.436;6.972;2024-02-21T15:46:32;11.10;99.90
2012;DHT22;1009;51.436;6.972;2024-02-21T15:49:02;11.00;99.90
2012;DHT22;1009;51.436;6.972;2024-02-21T15:51:29;11.00;99.90
2012;DHT22;1009;51.436;6.972;2024-02-21T15:53:55;11.00;99.90
2012;DHT22;1009;51.436;6.972;2024-02-21T15:56:22;11.00;99.90
2012;DHT22;1009;51.436;6.972;2024-02-21T15:58:49;11.00;99.90
2012;DHT22;1009;51.436;6.972;2024-02-21T16:01:18;11.00;99.90
2012;DHT22;1009;51.436;6.972;2024-02-21T16:03:44;11.00;99.90
2012;DHT22;1009;51.436;6.972;2024-02-21T16:06:11;11.00;99.90
2012;DHT22;1009;51.436;6.972;2024-02-21T16:08:38;11.00;99.90
2012;DHT22;1009;51.436;6.972;2024-02-21T16:11:06;11.00;99.90
2012;DHT22;1009;51.436;6.972;2024-02-21T16:13:34;10.90;99.90